Time;durP1;ratioP1;P1;durP2;ratioP2;P2;SDS_P1;SDS_P2;PMS_P1;PMS_P2;Temp;Humidity;BMP_temperature;BMP_pressure;BME280_temperature;BME280_humidity;BME280_pressure;Samples;Min_cycle;Max_cycle;Signal;HPM_P1;HPM_P2
2022/02/26 00:01:14;;;;;;;54.08;33.45;;;205.60;2252.80;;;;;;4883958;29;20025;-83
2022/02/26 00:03:41;;;;;;;60.78;38.33;;;205.70;2252.80;;;;;;4884178;29;20080;-83
2022/02/26 00:06:07;;;;;;;68.53;40.22;;;205.60;2252.80;;;;;;4883804;29;20365;-82
2022/02/26 00:08:33;;;;;;;58.25;35.50;;;205.70;2252.80;;;;;;4883850;29;20103;-84
2022/02/26 00:10:58;;;;;;;59.72;36.80;;;205.70;2252.80;;;;;;4883570;29;20056;-82
2022/02/26 00:13:25;;;;;;;48.17;30.10;;;205.70;2252.80;;;;;;4883523;29;20029;-82
2022/02/26 00:15:57;;;;;;;50.13;29.90;;;205.70;2252.80;;;;;;4883787;29;20380;-83
2022/02/26 00:18:23;;;;;;;54.03;35.30;;;205.60;2252.80;;;;;;4883739;29;20071;-83
2022/02/26 00:20:49;;;;;;;49.45;33.08;;;205.60;2252.80;;;;;;4883651;29;20469;-84
2022/02/26 00:23:22;;;;;;;61.42;35.97;;;205.30;2252.80;;;;;;4883752;29;20028;-83
2022/02/26 00:25:51;;;;;;;65.18;42.38;;;205.40;2252.80;;;;;;4883615;29;20017;-83
2022/02/26 00:28:26;;;;;;;72.13;47.00;;;205.30;2252.80;;;;;;4883487;29;20031;-82
2022/02/26 00:30:59;;;;;;;120.47;63.80;;;205.30;2252.80;;;;;;4883462;29;20047;-82
2022/02/26 00:33:46;;;;;;;129.43;61.95;;;230.40;2252.80;;;;;;4883440;29;20031;-83
2022/02/26 00:36:22;;;;;;;123.43;56.33;;;205.20;2252.80;;;;;;4883173;29;20047;-83
2022/02/26 00:38:48;;;;;;;87.63;38.78;;;205.20;2252.80;;;;;;4882975;29;20029;-83
2022/02/26 00:41:14;;;;;;;60.22;36.95;;;205.10;2252.80;;;;;;4882930;29;20020;-84
2022/02/26 00:43:40;;;;;;;73.25;45.63;;;205.00;2252.80;;;;;;4883227;29;20032;-83
2022/02/26 00:46:07;;;;;;;95.78;59.58;;;205.20;2252.80;;;;;;4883095;29;20373;-82
2022/02/26 00:51:19;;;;;;;132.32;71.82;;;205.10;2252.80;;;;;;4900018;29;20089;-82
2022/02/26 00:53:46;;;;;;;101.50;60.47;;;205.10;2252.80;;;;;;4867823;29;20048;-82
2022/02/26 00:56:12;;;;;;;69.78;41.58;;;205.10;2252.80;;;;;;4882950;29;20355;-82
2022/02/26 00:58:38;;;;;;;56.17;35.22;;;205.00;2252.80;;;;;;4882860;29;20024;-83
2022/02/26 01:01:04;;;;;;;37.08;21.95;;;205.00;2252.80;;;;;;4882796;29;20430;-85
2022/02/26 01:03:30;;;;;;;40.75;24.38;;;205.00;2252.80;;;;;;4882955;29;20060;-84
2022/02/26 01:05:56;;;;;;;39.15;25.48;;;205.00;2252.80;;;;;;4882837;29;20052;-85
2022/02/26 01:08:25;;;;;;;36.58;21.17;;;205.00;2252.80;;;;;;4882753;29;20445;-85
2022/02/26 01:10:51;;;;;;;35.60;19.35;;;205.10;2252.80;;;;;;4882920;29;20069;-84
2022/02/26 01:13:17;;;;;;;31.23;18.63;;;205.00;2252.80;;;;;;4882862;29;20025;-82
2022/02/26 01:15:43;;;;;;;31.90;17.27;;;205.00;2252.80;;;;;;4882675;29;20488;-83
2022/02/26 01:18:09;;;;;;;36.90;19.75;;;205.00;2252.80;;;;;;4882720;29;20033;-83
2022/02/26 01:20:35;;;;;;;23.58;13.98;;;205.00;2252.80;;;;;;4882475;29;20033;-82
2022/02/26 01:23:01;;;;;;;27.83;18.05;;;205.00;2252.80;;;;;;4882423;29;20050;-84
2022/02/26 01:25:26;;;;;;;29.15;17.00;;;205.00;2252.80;;;;;;4882679;29;20473;-84
2022/02/26 01:27:52;;;;;;;47.50;31.00;;;205.00;2252.80;;;;;;4882592;29;20454;-84
2022/02/26 01:30:18;;;;;;;27.98;16.73;;;205.00;2252.80;;;;;;4882397;29;20052;-85
2022/02/26 01:32:44;;;;;;;26.75;15.80;;;205.00;2252.80;;;;;;4882504;29;20032;-83
2022/02/26 01:35:11;;;;;;;22.90;14.98;;;205.10;2252.80;;;;;;4882514;29;20024;-83
2022/02/26 01:37:38;;;;;;;22.10;13.98;;;204.80;2252.80;;;;;;4882431;29;20035;-84
2022/02/26 01:40:05;;;;;;;35.47;19.42;;;204.80;2252.80;;;;;;4882226;29;20469;-83
2022/02/26 01:42:30;;;;;;;32.10;18.40;;;204.90;2252.80;;;;;;4882067;29;20374;-80
2022/02/26 01:44:56;;;;;;;46.60;24.67;;;204.90;2252.80;;;;;;4882422;29;20031;-83
2022/02/26 01:47:23;;;;;;;61.38;28.67;;;204.90;2252.80;;;;;;4882355;29;20024;-83
2022/02/26 01:49:49;;;;;;;42.85;25.40;;;204.80;2252.80;;;;;;4882214;29;20029;-82
2022/02/26 01:52:17;;;;;;;41.13;27.98;;;204.80;2252.80;;;;;;4882238;29;20028;-84
2022/02/26 01:54:45;;;;;;;38.40;24.15;;;180.10;2252.80;;;;;;4882050;29;20126;-84
2022/02/26 01:57:12;;;;;;;30.40;18.55;;;204.80;2252.80;;;;;;4881959;29;20056;-82
2022/02/26 01:59:38;;;;;;;74.20;35.47;;;204.80;2252.80;;;;;;4881511;29;20036;-83
2022/02/26 02:02:05;;;;;;;95.97;44.63;;;180.10;2252.80;;;;;;4882157;29;20037;-81
2022/02/26 02:04:32;;;;;;;98.63;48.75;;;180.10;2252.80;;;;;;4882024;29;20024;-81
2022/02/26 02:06:57;;;;;;;75.50;37.28;;;205.00;2252.80;;;;;;4882036;29;20024;-82
2022/02/26 02:09:25;;;;;;;51.83;26.05;;;179.90;2252.80;;;;;;4882001;29;20373;-81
2022/02/26 02:11:51;;;;;;;38.58;18.08;;;179.80;2252.80;;;;;;4881529;29;20101;-83
2022/02/26 02:14:17;;;;;;;25.73;13.95;;;179.90;2252.80;;;;;;4882157;29;20476;-82
2022/02/26 02:16:43;;;;;;;37.42;18.10;;;180.00;2252.80;;;;;;4897585;29;20048;-83
2022/02/26 02:19:10;;;;;;;33.97;18.20;;;180.10;2252.80;;;;;;4881818;29;20024;-83
2022/02/26 02:21:38;;;;;;;40.55;23.90;;;180.10;2252.80;;;;;;4881939;29;20470;-82
2022/02/26 02:24:05;;;;;;;16.25;8.98;;;179.90;2252.80;;;;;;4881973;29;20020;-83
2022/02/26 02:26:33;;;;;;;22.48;13.80;;;179.80;2252.80;;;;;;4881569;29;20039;-82
2022/02/26 02:29:00;;;;;;;33.25;16.20;;;180.10;2252.80;;;;;;4881876;29;20025;-82
2022/02/26 02:31:27;;;;;;;24.65;13.75;;;180.10;2252.80;;;;;;4881394;29;20025;-82
2022/02/26 02:33:53;;;;;;;26.13;15.25;;;180.10;2252.80;;;;;;4881989;29;20469;-84
2022/02/26 02:36:19;;;;;;;37.05;19.02;;;179.90;2252.80;;;;;;4881852;29;20031;-84
2022/02/26 02:38:45;;;;;;;32.47;17.27;;;179.90;2252.80;;;;;;4881529;29;20024;-84
2022/02/26 02:41:11;;;;;;;26.20;15.88;;;179.80;2252.80;;;;;;4881970;29;20123;-83
2022/02/26 02:43:39;;;;;;;42.25;19.98;;;179.80;2252.80;;;;;;4881700;29;20052;-84
2022/02/26 02:46:05;;;;;;;36.85;18.50;;;179.80;2252.80;;;;;;4881419;29;20028;-81
2022/02/26 02:48:31;;;;;;;35.65;16.13;;;179.80;2252.80;;;;;;4881838;29;20097;-81
2022/02/26 02:50:57;;;;;;;30.42;15.38;;;179.80;2252.80;;;;;;4881843;29;20355;-82
2022/02/26 02:53:23;;;;;;;24.38;15.10;;;179.80;2252.80;;;;;;4881597;29;20037;-83
2022/02/26 02:55:50;;;;;;;36.53;17.58;;;179.70;2252.80;;;;;;4882092;29;20036;-83
2022/02/26 02:58:22;;;;;;;22.27;12.43;;;179.80;2252.80;;;;;;4900982;29;20040;-82
2022/02/26 03:00:48;;;;;;;22.27;11.52;;;179.80;2252.80;;;;;;4887607;29;20060;-80
2022/02/26 03:03:13;;;;;;;17.23;10.00;;;179.70;2252.80;;;;;;4882365;29;20033;-81
2022/02/26 03:05:39;;;;;;;188.65;56.85;;;179.50;2252.80;;;;;;4881703;29;20024;-83
2022/02/26 03:08:05;;;;;;;134.90;42.28;;;179.50;2252.80;;;;;;4881469;29;20025;-81
2022/02/26 03:10:31;;;;;;;53.13;21.45;;;179.40;2252.80;;;;;;4883895;29;20049;-81
2022/02/26 03:12:57;;;;;;;29.88;16.63;;;179.50;2252.80;;;;;;4885045;29;20035;-82
2022/02/26 03:15:33;;;;;;;25.00;12.65;;;179.50;2252.80;;;;;;4884731;29;20029;-82
2022/02/26 03:17:59;;;;;;;18.25;10.52;;;179.50;2252.80;;;;;;4884982;29;20028;-81
2022/02/26 03:20:25;;;;;;;34.17;15.77;;;179.50;2252.80;;;;;;4884511;29;20028;-83
2022/02/26 03:22:51;;;;;;;36.67;20.58;;;179.40;2252.80;;;;;;4884735;29;20481;-83
2022/02/26 03:25:20;;;;;;;41.45;23.95;;;179.50;2252.80;;;;;;4884824;29;20123;-83
2022/02/26 03:27:46;;;;;;;36.08;19.83;;;179.50;2252.80;;;;;;4884504;29;20059;-83
2022/02/26 03:30:13;;;;;;;39.83;23.98;;;179.50;2252.80;;;;;;4884437;29;20033;-81
2022/02/26 03:32:39;;;;;;;34.25;20.10;;;179.60;2252.80;;;;;;4884704;29;20035;-82
2022/02/26 03:35:06;;;;;;;45.17;25.23;;;179.50;2252.80;;;;;;4884600;29;20055;-81
2022/02/26 03:37:32;;;;;;;65.32;31.60;;;179.50;2252.80;;;;;;4884494;29;20481;-83
2022/02/26 03:39:58;;;;;;;56.95;31.75;;;179.40;2252.80;;;;;;4884416;29;20052;-83
2022/02/26 03:42:24;;;;;;;52.05;29.20;;;179.50;2252.80;;;;;;4884202;29;20107;-83
2022/02/26 03:44:50;;;;;;;58.75;29.17;;;179.40;2252.80;;;;;;4884257;29;20021;-85
2022/02/26 03:47:17;;;;;;;97.78;39.33;;;179.40;2252.80;;;;;;4884477;29;20470;-82
2022/02/26 03:49:44;;;;;;;72.30;32.20;;;179.70;2252.80;;;;;;4884070;29;20032;-83
2022/02/26 03:52:10;;;;;;;51.33;25.65;;;179.50;2252.80;;;;;;4884256;29;20501;-82
2022/02/26 03:54:36;;;;;;;39.05;22.13;;;179.40;2252.80;;;;;;4884388;29;20076;-82
2022/02/26 03:57:02;;;;;;;47.08;24.77;;;179.40;2252.80;;;;;;4884045;29;20365;-83
2022/02/26 03:59:28;;;;;;;60.58;37.03;;;179.20;2252.80;;;;;;4883974;29;20029;-82
2022/02/26 04:01:54;;;;;;;54.03;30.25;;;179.20;2252.80;;;;;;4884138;29;20088;-83
2022/02/26 04:04:23;;;;;;;45.20;24.17;;;179.20;2252.80;;;;;;4883848;29;20063;-83
2022/02/26 04:06:50;;;;;;;40.08;24.38;;;154.50;2252.80;;;;;;4884168;29;20123;-81
2022/02/26 04:09:17;;;;;;;91.07;39.70;;;154.50;2252.80;;;;;;4883674;29;20044;-81
2022/02/26 04:11:43;;;;;;;62.70;30.60;;;180.00;2252.80;;;;;;4883607;29;20393;-81
2022/02/26 04:14:09;;;;;;;27.45;17.13;;;154.50;2252.80;;;;;;4883853;29;20057;-82
2022/02/26 04:16:35;;;;;;;27.58;16.13;;;179.20;2252.80;;;;;;4883809;29;20119;-84
2022/02/26 04:19:01;;;;;;;32.50;15.93;;;179.30;2252.80;;;;;;4883762;29;20095;-83
2022/02/26 04:21:28;;;;;;;23.27;14.95;;;179.40;2252.80;;;;;;4883282;29;20038;-82
2022/02/26 04:23:55;;;;;;;24.58;13.52;;;179.30;2252.80;;;;;;4883716;29;20073;-81
2022/02/26 04:26:22;;;;;;;20.23;11.77;;;179.20;2252.80;;;;;;4883659;29;20020;-83
2022/02/26 04:28:49;;;;;;;17.15;10.70;;;179.20;2252.80;;;;;;4883627;29;20036;-83
2022/02/26 04:31:16;;;;;;;16.77;9.48;;;179.30;2252.80;;;;;;4883741;29;20025;-83
2022/02/26 04:33:43;;;;;;;20.60;12.02;;;179.30;2252.80;;;;;;4883627;29;20131;-84
2022/02/26 04:36:09;;;;;;;23.50;13.60;;;179.20;2252.80;;;;;;4883438;29;20457;-84
2022/02/26 04:38:35;;;;;;;28.60;14.15;;;154.40;2252.80;;;;;;4883160;29;20024;-83
2022/02/26 04:41:02;;;;;;;31.38;14.35;;;154.40;2252.80;;;;;;4883430;29;20044;-80
2022/02/26 04:43:28;;;;;;;31.48;17.95;;;154.40;2252.80;;;;;;4883355;29;20040;-83
2022/02/26 04:45:55;;;;;;;30.80;17.73;;;154.50;2252.80;;;;;;4883282;29;20028;-82
2022/02/26 04:48:20;;;;;;;22.92;13.25;;;179.20;2252.80;;;;;;4883417;29;20449;-82
2022/02/26 04:50:46;;;;;;;28.75;16.00;;;179.20;2252.80;;;;;;4883297;29;20119;-81
2022/02/26 04:53:12;;;;;;;105.07;62.42;;;154.50;2252.80;;;;;;4882952;29;20346;-80
2022/02/26 04:55:38;;;;;;;52.55;31.70;;;179.20;2252.80;;;;;;4883192;29;20072;-82
2022/02/26 04:58:04;;;;;;;22.90;14.73;;;179.20;2252.80;;;;;;4883096;29;20025;-82
2022/02/26 05:00:30;;;;;;;16.02;10.60;;;154.50;2252.80;;;;;;4882775;29;20088;-81
2022/02/26 05:02:56;;;;;;;13.25;8.43;;;154.50;2252.80;;;;;;4882872;29;20039;-81
2022/02/26 05:05:22;;;;;;;15.77;9.00;;;154.50;2252.80;;;;;;4899554;29;20027;-80
2022/02/26 05:07:47;;;;;;;19.60;9.45;;;154.50;2252.80;;;;;;4883197;29;20052;-81
2022/02/26 05:10:13;;;;;;;12.40;7.63;;;154.50;2252.80;;;;;;4882603;29;20381;-82
2022/02/26 05:12:39;;;;;;;44.83;23.73;;;154.50;2252.80;;;;;;4882790;29;20450;-80
2022/02/26 05:15:05;;;;;;;40.05;21.33;;;154.50;2252.80;;;;;;4882815;29;20116;-80
2022/02/26 05:17:32;;;;;;;42.95;23.33;;;154.50;2252.80;;;;;;4882929;29;20059;-80
2022/02/26 05:19:57;;;;;;;69.68;36.10;;;154.50;2252.80;;;;;;4882401;29;20036;-80
2022/02/26 05:22:23;;;;;;;72.35;42.15;;;179.20;2252.80;;;;;;4882668;29;20047;-82
2022/02/26 05:24:49;;;;;;;50.50;28.40;;;179.20;2252.80;;;;;;4882750;29;20038;-81
2022/02/26 05:27:15;;;;;;;52.13;28.30;;;179.20;2252.80;;;;;;4882654;29;20028;-81
2022/02/26 05:29:41;;;;;;;56.65;29.17;;;179.20;2252.80;;;;;;4882668;29;20056;-82
2022/02/26 05:32:07;;;;;;;91.30;49.72;;;154.50;2252.80;;;;;;4882542;29;20062;-80
2022/02/26 05:34:33;;;;;;;85.80;47.05;;;154.10;2252.80;;;;;;4881710;29;20123;-81
2022/02/26 05:36:59;;;;;;;60.70;33.47;;;154.40;2252.80;;;;;;4882382;29;20048;-82
2022/02/26 05:39:25;;;;;;;41.05;23.15;;;154.40;2252.80;;;;;;4882357;29;20032;-82
2022/02/26 05:41:51;;;;;;;29.88;17.42;;;154.40;2252.80;;;;;;4882167;29;20028;-82
2022/02/26 05:44:16;;;;;;;33.97;17.75;;;154.40;2252.80;;;;;;4882417;29;20566;-80
2022/02/26 05:46:42;;;;;;;37.53;19.73;;;154.50;2252.80;;;;;;4882226;29;20035;-81
2022/02/26 05:49:08;;;;;;;24.17;14.10;;;154.50;2252.80;;;;;;4882148;29;20043;-82
2022/02/26 05:51:34;;;;;;;18.65;10.20;;;154.50;2252.80;;;;;;4882498;29;20032;-81
2022/02/26 05:54:00;;;;;;;21.80;14.32;;;179.20;2252.80;;;;;;4882288;29;20028;-81
2022/02/26 05:56:25;;;;;;;25.15;16.13;;;179.20;2252.80;;;;;;4882209;29;20140;-82
2022/02/26 05:58:51;;;;;;;28.67;17.40;;;179.20;2252.80;;;;;;4881998;29;20033;-81
2022/02/26 06:01:17;;;;;;;23.80;13.27;;;179.20;2252.80;;;;;;4882106;29;20055;-82
2022/02/26 06:03:43;;;;;;;15.10;9.50;;;179.20;2252.80;;;;;;4881868;29;20095;-82
2022/02/26 06:06:09;;;;;;;14.38;8.10;;;179.20;2252.80;;;;;;4882069;29;20031;-81
2022/02/26 06:08:34;;;;;;;11.52;7.65;;;179.20;2252.80;;;;;;4881883;29;20033;-81
2022/02/26 06:11:00;;;;;;;20.88;12.20;;;179.30;2252.80;;;;;;4898528;29;20041;-82
2022/02/26 06:13:26;;;;;;;24.15;15.48;;;179.30;2252.80;;;;;;4881924;29;20036;-80
2022/02/26 06:15:52;;;;;;;36.42;24.73;;;179.30;2252.80;;;;;;4881828;29;20076;-81
2022/02/26 06:18:18;;;;;;;34.95;21.98;;;179.30;2252.80;;;;;;4893515;29;20056;-82
2022/02/26 06:20:44;;;;;;;41.55;21.42;;;179.40;2252.80;;;;;;4902489;29;20127;-84
2022/02/26 06:23:10;;;;;;;34.60;20.55;;;179.40;2252.80;;;;;;4882684;29;20029;-81
2022/02/26 06:25:36;;;;;;;30.10;16.67;;;179.50;2252.80;;;;;;4883144;29;20135;-83
2022/02/26 06:28:01;;;;;;;43.22;23.90;;;179.30;2252.80;;;;;;4898731;29;20033;-83
2022/02/26 06:30:27;;;;;;;45.47;23.65;;;179.20;2252.80;;;;;;4881888;29;20064;-81
2022/02/26 06:32:54;;;;;;;47.63;27.60;;;154.50;2252.80;;;;;;4882110;29;20025;-81
2022/02/26 06:35:27;;;;;;;55.92;33.35;;;154.50;2252.80;;;;;;4881941;29;20032;-82
2022/02/26 06:37:53;;;;;;;44.95;30.85;;;179.20;2252.80;;;;;;4881751;29;20021;-81
2022/02/26 06:40:24;;;;;;;26.83;18.05;;;179.20;2252.80;;;;;;4881780;29;20044;-81
2022/02/26 06:42:59;;;;;;;40.03;22.95;;;179.20;2252.80;;;;;;4881856;29;20025;-82
2022/02/26 06:45:27;;;;;;;34.70;22.42;;;179.30;2252.80;;;;;;4883940;29;20045;-81
2022/02/26 06:47:53;;;;;;;20.48;11.00;;;179.40;2252.80;;;;;;4885306;29;20124;-83
2022/02/26 06:50:19;;;;;;;17.95;10.70;;;179.20;2252.80;;;;;;4885007;29;20115;-82
2022/02/26 06:52:45;;;;;;;32.53;22.77;;;179.20;2252.80;;;;;;4885567;29;20024;-83
2022/02/26 06:55:13;;;;;;;13.75;9.07;;;179.40;2252.80;;;;;;4885314;29;20033;-83
2022/02/26 06:57:54;;;;;;;16.70;10.63;;;179.40;2252.80;;;;;;4884740;29;20040;-81
2022/02/26 07:00:20;;;;;;;16.30;8.80;;;179.40;2252.80;;;;;;4884193;29;20127;-82
2022/02/26 07:02:46;;;;;;;17.23;11.57;;;179.40;2252.80;;;;;;4901844;29;20541;-83
2022/02/26 07:05:12;;;;;;;19.90;12.98;;;179.50;2252.80;;;;;;4884885;29;20164;-82
2022/02/26 07:07:38;;;;;;;19.95;10.00;;;179.50;2252.80;;;;;;4884974;29;20032;-82
2022/02/26 07:10:08;;;;;;;70.78;44.70;;;179.60;2252.80;;;;;;4885020;29;20059;-83
2022/02/26 07:12:41;;;;;;;24.90;16.60;;;205.30;2252.80;;;;;;4884594;29;20180;-83
2022/02/26 07:15:15;;;;;;;39.58;22.92;;;179.80;2252.80;;;;;;4884190;29;20032;-83
2022/02/26 07:18:13;;;;;;;37.03;23.50;;;179.80;2252.80;;;;;;4884867;29;20085;-82
2022/02/26 07:31:41;;;;;;;24.70;15.27;;;179.90;2252.80;;;;;;4866065;29;20534;-82
2022/02/26 07:34:10;;;;;;;27.73;15.10;;;179.90;2252.80;;;;;;4883514;29;20043;-82
2022/02/26 07:36:44;;;;;;;25.00;12.77;;;179.80;2252.80;;;;;;4882408;29;20473;-82
2022/02/26 07:39:12;;;;;;;18.15;13.85;;;179.90;2252.80;;;;;;4882025;29;20127;-80
2022/02/26 07:41:40;;;;;;;31.05;16.80;;;179.90;2252.80;;;;;;4884503;29;20020;-82
2022/02/26 07:44:06;;;;;;;31.35;21.80;;;179.90;2252.80;;;;;;4884576;29;20024;-82
2022/02/26 07:46:32;;;;;;;30.15;21.30;;;179.90;2252.80;;;;;;4868680;29;20164;-82
2022/02/26 07:48:58;;;;;;;25.98;18.55;;;180.10;2252.80;;;;;;4884452;29;20063;-81
2022/02/26 07:51:38;;;;;;;43.70;28.25;;;180.10;2252.80;;;;;;4884435;29;20034;-82
2022/02/26 07:54:04;;;;;;;41.38;26.60;;;180.10;2252.80;;;;;;4884079;29;20048;-80
2022/02/26 07:56:32;;;;;;;57.55;33.15;;;204.80;2252.80;;;;;;4883485;29;20028;-83
2022/02/26 08:06:03;;;;;;;21.77;14.13;;;204.90;2252.80;;;;;;4842525;29;20037;-82
2022/02/26 08:12:17;;;;;;;;;;;;;;;;;;;;;
2022/02/26 08:14:46;;;;;;;51.55;28.98;;;204.80;2252.80;;;;;;4842692;29;20052;-80
2022/02/26 08:17:58;;;;;;;51.15;33.53;;;204.80;2252.80;;;;;;4827247;29;20038;-83
2022/02/26 08:20:58;;;;;;;61.60;33.72;;;204.90;2252.80;;;;;;4827084;29;20117;-81
2022/02/26 08:24:07;;;;;;;46.47;25.83;;;204.80;2252.80;;;;;;4827038;29;20514;-82
2022/02/26 08:27:45;;;;;;;36.95;24.52;;;204.90;2252.80;;;;;;4842479;29;20030;-81
2022/02/26 08:34:06;;;;;;;36.97;24.25;;;205.10;2252.80;;;;;;4842637;29;20037;-84
2022/02/26 08:36:54;;;;;;;30.75;20.83;;;205.10;2252.80;;;;;;4833539;29;20148;-84
2022/02/26 08:39:25;;;;;;;41.78;27.25;;;205.20;2252.80;;;;;;4824612;29;20493;-82
2022/02/26 08:41:54;;;;;;;36.00;22.73;;;205.20;2252.80;;;;;;4826624;29;20107;-85
2022/02/26 08:47:11;;;;;;;42.13;24.23;;;205.20;2252.80;;;;;;4868122;29;20036;-84
2022/02/26 08:49:48;;;;;;;27.45;18.27;;;205.30;2252.80;;;;;;4883148;29;20028;-85
2022/02/26 09:02:09;;;;;;;27.30;20.23;;;205.10;2252.80;;;;;;4842281;29;20058;-81
2022/02/26 09:04:39;;;;;;;36.40;24.88;;;205.00;2252.80;;;;;;4841075;29;20044;-80
2022/02/26 09:07:17;;;;;;;41.80;26.20;;;205.00;2252.80;;;;;;4874104;29;20032;-82
2022/02/26 09:10:09;;;;;;;36.55;24.20;;;205.00;2252.80;;;;;;4883822;29;20380;-82
2022/02/26 09:16:07;;;;;;;36.78;25.20;;;205.10;2252.80;;;;;;4889164;29;20044;-79
2022/02/26 09:19:36;;;;;;;;;;;;;;;;;;;;;
2022/02/26 09:28:48;;;;;;;42.58;28.55;;;205.40;2252.80;;;;;;4841674;29;20060;-82
2022/02/26 09:31:51;;;;;;;28.98;21.25;;;205.40;2252.80;;;;;;4833668;29;20068;-81
2022/02/26 09:34:47;;;;;;;31.88;20.83;;;205.20;2252.80;;;;;;4859743;29;20397;-81
2022/02/26 09:38:01;;;;;;;30.20;22.00;;;205.20;2252.80;;;;;;4843920;29;20037;-82
2022/02/26 09:40:30;;;;;;;;;;;205.30;2252.80;;;;;;4828555;29;20046;-80
2022/02/26 09:42:58;;;;;;;35.38;26.65;;;205.30;2252.80;;;;;;4832471;29;19897;-80
2022/02/26 10:17:00;;;;;;;25.05;19.48;;;205.60;2252.80;;;;;;4922080;28;20047;-79
2022/02/26 10:19:28;;;;;;;35.97;23.52;;;205.70;2252.80;;;;;;4896932;29;20389;-82
2022/02/26 10:36:21;;;;;;;28.73;18.73;;;230.40;2252.80;;;;;;4901565;29;20060;-81
2022/02/26 10:39:43;;;;;;;24.92;18.13;;;230.50;2252.80;;;;;;4884881;29;20021;-81
2022/02/26 10:42:47;;;;;;;26.75;18.48;;;230.50;2252.80;;;;;;4884542;29;20037;-80
2022/02/26 10:45:18;;;;;;;25.42;20.15;;;230.60;2252.80;;;;;;4885134;29;20041;-81
2022/02/26 10:47:57;;;;;;;28.13;21.05;;;230.70;2252.80;;;;;;4885089;29;20083;-81
2022/02/26 10:50:25;;;;;;;26.00;19.25;;;230.90;2252.80;;;;;;4885014;29;20377;-81
2022/02/26 10:53:06;;;;;;;21.55;17.25;;;231.10;2252.80;;;;;;4885006;29;20056;-79
2022/02/26 10:55:57;;;;;;;24.48;18.83;;;231.30;2252.80;;;;;;4884754;29;20029;-75
2022/02/26 10:58:29;;;;;;;29.50;19.60;;;256.10;2227.20;;;;;;4900286;29;20524;-77
2022/02/26 11:01:09;;;;;;;18.60;14.43;;;256.20;2201.60;;;;;;4901649;29;20032;-76
2022/02/26 11:03:36;;;;;;;42.33;31.25;;;256.20;2201.60;;;;;;4901356;29;20020;-77
2022/02/26 11:09:29;;;;;;;;;;;256.40;2201.60;;;;;;4901577;29;20124;-79
2022/02/26 11:11:57;;;;;;;24.35;20.27;;;256.30;2176.00;;;;;;4884204;29;20245;-78
2022/02/26 11:18:02;;;;;;;18.45;14.27;;;256.50;2201.60;;;;;;4901254;28;20567;-80
2022/02/26 11:26:21;;;;;;;22.70;17.00;;;256.20;2201.60;;;;;;4901114;29;20049;-81
2022/02/26 11:28:50;;;;;;;23.08;16.35;;;256.00;2227.20;;;;;;4884230;29;20017;-79
2022/02/26 11:35:15;;;;;;;22.85;15.85;;;231.10;2252.80;;;;;;4876351;29;20088;-81
2022/02/26 11:38:03;;;;;;;25.35;17.65;;;231.00;2252.80;;;;;;4883469;29;20029;-82
2022/02/26 11:40:30;;;;;;;22.48;16.25;;;231.00;2252.80;;;;;;4883428;29;20032;-82
2022/02/26 11:43:36;;;;;;;33.10;22.55;;;230.70;2252.80;;;;;;4883963;29;20495;-81
2022/02/26 11:46:18;;;;;;;32.22;19.38;;;230.70;2252.80;;;;;;4883798;29;20589;-83
2022/02/26 11:48:48;;;;;;;28.23;21.98;;;230.80;2252.80;;;;;;4884410;29;20508;-81
2022/02/26 11:51:56;;;;;;;21.20;16.08;;;230.80;2252.80;;;;;;4883984;29;20039;-83
2022/02/26 11:54:23;;;;;;;24.50;16.85;;;230.90;2252.80;;;;;;4860601;29;20038;-85
2022/02/26 11:56:57;;;;;;;25.05;18.88;;;230.70;2252.80;;;;;;4845840;29;20070;-84
2022/02/26 11:59:49;;;;;;;26.08;17.38;;;230.70;2252.80;;;;;;4845491;29;20125;-80
2022/02/26 12:02:17;;;;;;;34.13;23.48;;;230.70;2252.80;;;;;;4845039;29;20025;-80
2022/02/26 12:15:26;;;;;;;52.78;32.97;;;230.50;2252.80;;;;;;4806060;29;20102;-79
2022/02/26 12:18:05;;;;;;;;;;;;;;;;;;;;;
2022/02/26 12:24:40;;;;;;;24.60;19.27;;;230.60;2252.80;;;;;;4806182;29;20392;-77
2022/02/26 12:27:35;;;;;;;27.58;19.13;;;230.50;2252.80;;;;;;4871666;29;20047;-82
2022/02/26 12:30:09;;;;;;;24.42;16.98;;;230.60;2252.80;;;;;;4876942;29;20033;-81
2022/02/26 12:33:47;;;;;;;30.55;20.20;;;230.50;2252.80;;;;;;4883549;29;20021;-84
2022/02/26 12:36:29;;;;;;;27.38;19.80;;;230.50;2252.80;;;;;;4772515;30;20035;-81
2022/02/26 12:42:27;;;;;;;19.90;15.70;;;230.60;2252.80;;;;;;4757171;29;20099;-80
2022/02/26 12:48:14;;;;;;;22.20;15.60;;;205.70;2252.80;;;;;;4769497;30;20031;-81
2022/02/26 12:54:02;;;;;;;22.58;15.75;;;205.70;2252.80;;;;;;4769286;30;20504;-83
2022/02/26 12:56:36;;;;;;;26.77;19.27;;;205.70;2252.80;;;;;;4754682;30;20024;-81
2022/02/26 12:59:17;;;;;;;33.15;22.00;;;205.70;2252.80;;;;;;4806319;29;20044;-78
2022/02/26 13:01:55;;;;;;;27.08;16.42;;;230.40;2252.80;;;;;;4879242;29;20036;-81
2022/02/26 13:04:26;;;;;;;42.42;23.55;;;230.40;2252.80;;;;;;4879646;29;20374;-80
2022/02/26 13:07:08;;;;;;;50.78;35.47;;;205.70;2252.80;;;;;;4880290;29;20032;-82
2022/02/26 13:09:50;;;;;;;39.47;30.63;;;230.40;2252.80;;;;;;4903798;29;20036;-81
2022/02/26 13:12:40;;;;;;;25.02;18.65;;;230.50;2252.80;;;;;;4883792;29;20025;-82
2022/02/26 13:15:11;;;;;;;26.42;18.70;;;230.60;2252.80;;;;;;4883656;29;20080;-82
2022/02/26 13:17:48;;;;;;;58.33;39.03;;;230.60;2252.80;;;;;;4880130;29;20074;-82
2022/02/26 13:20:23;;;;;;;14.60;11.68;;;230.50;2252.80;;;;;;4879377;29;20037;-83
2022/02/26 13:22:59;;;;;;;34.92;26.38;;;231.00;2252.80;;;;;;4879199;29;20036;-79
2022/02/26 13:26:29;;;;;;;;;;;;;;;;;;;;;
2022/02/26 13:29:40;;;;;;;18.63;14.07;;;231.00;2252.80;;;;;;4840171;29;20018;-82
2022/02/26 13:32:31;;;;;;;24.15;17.75;;;230.80;2252.80;;;;;;4824364;29;20021;-79
2022/02/26 13:42:27;;;;;;;20.58;15.20;;;231.00;2252.80;;;;;;4840947;29;20030;-81
2022/02/26 13:52:17;;;;;;;33.38;23.83;;;231.10;2252.80;;;;;;4808754;29;20088;-82
2022/02/26 13:57:50;;;;;;;25.85;17.40;;;256.40;2252.80;;;;;;4849886;29;20522;-81
2022/02/26 14:55:35;;;;;;;42.13;29.10;;;205.10;2252.80;;;;;;4855401;29;20037;-82
2022/02/26 14:58:01;;;;;;;40.40;30.85;;;204.80;2252.80;;;;;;4862299;29;20021;-82
2022/02/26 15:00:27;;;;;;;52.08;38.72;;;205.00;2252.80;;;;;;4862502;29;20469;-82
2022/02/26 15:02:53;;;;;;;42.83;30.63;;;205.10;2252.80;;;;;;4862743;29;20035;-80
2022/02/26 15:05:19;;;;;;;30.23;21.40;;;204.90;2252.80;;;;;;4863104;29;20025;-80
2022/02/26 15:07:45;;;;;;;47.90;32.25;;;204.80;2252.80;;;;;;4866320;29;20053;-83
2022/02/26 15:10:13;;;;;;;68.80;39.45;;;204.80;2252.80;;;;;;4866290;29;20067;-80
2022/02/26 15:12:39;;;;;;;51.45;34.95;;;180.00;2252.80;;;;;;4866039;29;20029;-83
2022/02/26 15:15:08;;;;;;;34.15;23.92;;;180.00;2252.80;;;;;;4866113;29;20116;-82
2022/02/26 15:21:44;;;;;;;30.95;22.80;;;180.10;2252.80;;;;;;4882481;29;20064;-82
2022/02/26 15:24:44;;;;;;;26.70;19.60;;;180.10;2252.80;;;;;;4865663;29;20060;-81
2022/02/26 15:34:38;;;;;;;30.35;19.45;;;180.00;2252.80;;;;;;4806847;29;20042;-82
2022/02/26 15:37:49;;;;;;;30.17;19.52;;;179.90;2252.80;;;;;;4752902;30;20474;-85
2022/02/26 15:40:55;;;;;;;52.53;31.77;;;179.90;2252.80;;;;;;4752151;30;20049;-82
2022/02/26 15:43:56;;;;;;;28.67;21.48;;;179.90;2252.80;;;;;;4759509;29;20079;-80
2022/02/26 15:54:02;;;;;;;;;;;;;;;;;;;;;
2022/02/26 15:56:28;;;;;;;23.63;18.30;;;179.80;2252.80;;;;;;4794729;29;20034;-78
2022/02/26 15:59:52;;;;;;;27.48;20.73;;;179.90;2252.80;;;;;;4791314;29;20500;-82
2022/02/26 16:02:42;;;;;;;;;;;;;;;;;;;;;
2022/02/26 16:06:05;;;;;;;30.02;21.25;;;179.80;2252.80;;;;;;4805913;29;20023;-79
2022/02/26 17:27:59;;;;;;;33.97;23.98;;;154.20;2252.80;;;;;;4878845;29;20055;-80
2022/02/26 17:31:04;;;;;;;33.63;22.48;;;154.30;2252.80;;;;;;4864014;29;20120;-82
2022/02/26 17:36:52;;;;;;;31.85;22.73;;;154.20;2252.80;;;;;;4880277;29;20501;-79
2022/02/26 17:42:40;;;;;;;28.30;21.40;;;154.30;2252.80;;;;;;4880267;29;20472;-81
2022/02/26 17:45:07;;;;;;;35.28;23.70;;;154.10;2252.80;;;;;;4863498;29;20468;-80
2022/02/26 17:55:32;;;;;;;32.63;23.50;;;154.10;2252.80;;;;;;4815612;29;20489;-82